createdAt,value
2018-12-05T06:24:39.586Z,-3.20
2018-12-05T06:34:58.643Z,-3.15
2018-12-05T06:45:24.488Z,-2.86
2018-12-05T06:55:42.455Z,-2.72
2018-12-05T07:06:00.594Z,-2.51
2018-12-05T11:42:27.941Z,5.71
2018-12-05T11:52:46.448Z,6.09
2018-12-05T12:03:04.650Z,6.56
2018-12-05T12:13:23.534Z,7.18
2018-12-05T12:23:41.981Z,8.26
2018-12-05T12:34:01.999Z,7.41
2018-12-05T12:53:30.384Z,7.67
2018-12-05T13:03:48.903Z,8.75
2018-12-05T13:14:07.690Z,8.77
2018-12-05T13:24:26.134Z,9.22
2018-12-05T13:34:45.478Z,6.21
2018-12-05T13:45:03.713Z,5.15
2018-12-05T13:55:22.140Z,5.09
2018-12-05T14:05:41.920Z,4.56
2018-12-05T14:16:01.840Z,3.95
2018-12-05T14:26:39.516Z,3.59
2018-12-05T14:37:20.554Z,3.32
2018-12-05T14:48:04.187Z,2.97
2018-12-05T15:09:58.294Z,1.97
2018-12-05T15:20:18.019Z,1.10
2018-12-05T15:30:38.048Z,0.03
2018-12-05T15:40:56.762Z,-0.33
2018-12-05T15:51:15.502Z,-0.80
2018-12-05T16:01:34.503Z,-1.07
2018-12-05T16:11:53.600Z,-1.35
2018-12-05T16:22:13.000Z,-1.60
2018-12-05T16:32:32.740Z,-1.61
2018-12-05T16:42:51.588Z,-1.91
2018-12-05T16:53:09.965Z,-2.01
2018-12-05T17:03:29.222Z,-2.24
2018-12-05T17:13:49.471Z,-2.47
2018-12-05T17:24:08.753Z,-2.58
2018-12-05T17:34:29.477Z,-2.68
2018-12-05T17:44:50.150Z,-2.97
2018-12-05T17:55:08.998Z,-3.05
2018-12-05T18:05:28.695Z,-3.13
2018-12-05T18:15:49.989Z,-3.41
2018-12-05T18:26:11.100Z,-3.63
2018-12-05T18:36:30.490Z,-3.60
2018-12-05T18:46:51.243Z,-3.70
2018-12-05T18:57:14.080Z,-3.85
2018-12-05T19:07:33.901Z,-3.85
2018-12-05T19:18:00.137Z,-3.83
2018-12-05T19:28:24.017Z,-4.04
2018-12-05T19:38:53.120Z,-3.93
2018-12-05T19:49:17.717Z,-3.83
2018-12-05T19:59:38.961Z,-3.70
2018-12-05T20:10:00.568Z,-3.62
2018-12-05T20:20:24.507Z,-3.73
2018-12-05T20:30:45.987Z,-3.74
2018-12-05T20:41:10.097Z,-3.86
2018-12-05T20:51:32.988Z,-3.92
2018-12-05T21:01:54.658Z,-3.90
2018-12-05T21:12:14.880Z,-4.02
2018-12-05T21:22:34.948Z,-4.01
2018-12-05T21:32:55.062Z,-4.14
2018-12-05T21:43:16.289Z,-4.07
2018-12-05T21:53:35.677Z,-4.05
2018-12-05T22:03:55.880Z,-4.14
2018-12-05T22:14:15.107Z,-4.19
2018-12-05T22:24:33.921Z,-4.15
2018-12-05T22:34:52.408Z,-4.03
2018-12-05T22:45:11.730Z,-4.11
2018-12-05T22:55:31.065Z,-3.83
2018-12-05T23:05:50.581Z,-3.75
2018-12-05T23:16:09.158Z,-3.63
2018-12-05T23:26:28.957Z,-3.51
2018-12-05T23:36:48.657Z,-3.30
2018-12-05T23:47:14.800Z,-3.06
2018-12-05T23:57:33.913Z,-2.89
